Dera Bugti Weather



Dera Bugti's Current Weather

Temprature 38.56o overcast clouds

overcast clouds

Rain: 0 %

Min Temprature38.56o
Max Temprature38.56o
Humidity27
Wind Speed4.47 m/h
Sun Rise05:39:20
Sun Set19:20:08
Current Time: 24-Jul-2021 15:52:25
Lat/Lon: 29.0307, 69.151




Dera Bugti's Geo Location



Dera Bugti's Weather Forecast

Time Overall Temp Min Temp Max Temp Humidity Wind Speed Rain
24-Jul-2021 (Sat)
17:00:00 overcast clouds 38.210 38.210 38.210 28 4.68 m/h 0 %
20:00:00 broken clouds 37.660 36.560 37.660 30 2.96 m/h 0 %
23:00:00 broken clouds 36.090 35.030 36.090 34 1.51 m/h 0 %
25-Jul-2021 (Sun)
02:00:00 clear sky 33.160 33.160 33.160 42 3.05 m/h 0 %
05:00:00 few clouds 32.290 32.290 32.290 46 1.66 m/h 0 %
08:00:00 clear sky 34.560 34.560 34.560 38 2.08 m/h 0 %
11:00:00 clear sky 38.090 38.090 38.090 30 2.65 m/h 0 %
14:00:00 clear sky 40.820 40.820 40.820 24 3.41 m/h 0 %
17:00:00 clear sky 41.860 41.860 41.860 22 5.37 m/h 0 %
20:00:00 clear sky 39.830 39.830 39.830 25 4.66 m/h 0 %
23:00:00 clear sky 35.950 35.950 35.950 39 6.85 m/h 0 %
26-Jul-2021 (Mon)
02:00:00 scattered clouds 33.370 33.370 33.370 51 4.11 m/h 0 %
05:00:00 broken clouds 31.890 31.890 31.890 57 1.96 m/h 0 %
08:00:00 overcast clouds 32.640 32.640 32.640 52 1.17 m/h 0 %
11:00:00 overcast clouds 36.500 36.500 36.500 39 2.66 m/h 0 %
14:00:00 scattered clouds 39.880 39.880 39.880 30 4.47 m/h 0 %
17:00:00 few clouds 40.820 40.820 40.820 27 4.83 m/h 0 %
20:00:00 scattered clouds 38.000 38.000 38.000 35 7.94 m/h 0 %
23:00:00 broken clouds 34.400 34.400 34.400 47 7.21 m/h 0 %
27-Jul-2021 (Tue)
02:00:00 overcast clouds 31.230 31.230 31.230 60 2.82 m/h 0 %
05:00:00 overcast clouds 29.770 29.770 29.770 66 2.96 m/h 0 %
08:00:00 overcast clouds 29.450 29.450 29.450 69 2.34 m/h 0 %
11:00:00 overcast clouds 34.080 34.080 34.080 50 3.06 m/h 0 %
14:00:00 overcast clouds 37.730 37.730 37.730 40 4.14 m/h 0 %
17:00:00 overcast clouds 37.790 37.790 37.790 39 6.98 m/h 0 %
20:00:00 overcast clouds 34.840 34.840 34.840 47 8.48 m/h 0 %
23:00:00 overcast clouds 30.900 30.900 30.900 62 4.12 m/h 0 %
28-Jul-2021 (Wed)
02:00:00 broken clouds 29.410 29.410 29.410 69 3.34 m/h 0 %
05:00:00 scattered clouds 28.280 28.280 28.280 74 3.19 m/h 0 %
08:00:00 overcast clouds 28.860 28.860 28.860 70 3.98 m/h 0 %
11:00:00 broken clouds 33.510 33.510 33.510 51 3.63 m/h 0 %
14:00:00 broken clouds 37.240 37.240 37.240 39 4.57 m/h 0 %
17:00:00 broken clouds 38.000 38.000 38.000 37 6.42 m/h 0 %
20:00:00 overcast clouds 35.660 35.660 35.660 44 7.68 m/h 0 %
23:00:00 broken clouds 32.750 32.750 32.750 54 6.41 m/h 0 %
29-Jul-2021 (Thu)
02:00:00 broken clouds 31.440 31.440 31.440 59 3.92 m/h 0 %
05:00:00 broken clouds 29.650 29.650 29.650 68 2.5 m/h 0 %
08:00:00 overcast clouds 30.750 30.750 30.750 63 2.08 m/h 0 %
11:00:00 overcast clouds 34.450 34.450 34.450 50 3.17 m/h 0 %
14:00:00 overcast clouds 37.280 37.280 37.280 41 4.13 m/h 0 %

Famous Cities (60)